Time;durP1;ratioP1;P1;durP2;ratioP2;P2;SDS_P1;SDS_P2;PMS_P1;PMS_P2;Temp;Humidity;BMP_temperature;BMP_pressure;BME280_temperature;BME280_humidity;BME280_pressure;Samples;Min_cycle;Max_cycle;Signal;HPM_P1;HPM_P2
2022/01/26 00:06:45;;;;;;;90.25;31.73;;;;;;;4.85;100.00;102908.38;5065209;28;20456;-72
2022/01/26 00:09:13;;;;;;;102.10;36.60;;;;;;;4.85;100.00;102902.91;5067434;28;20059;-73
2022/01/26 00:11:40;;;;;;;91.53;35.45;;;;;;;4.88;100.00;102914.09;5065508;28;20070;-73
2022/01/26 00:14:13;;;;;;;100.03;35.40;;;;;;;4.89;100.00;102912.97;5069779;28;20048;-72
2022/01/26 00:16:43;;;;;;;103.80;36.22;;;;;;;4.89;100.00;102915.72;5065824;28;20045;-72
2022/01/26 00:19:21;;;;;;;98.30;31.00;;;;;;;4.88;100.00;102916.84;5068318;28;20056;-71
2022/01/26 00:21:52;;;;;;;106.05;35.92;;;;;;;4.88;100.00;102919.56;5067061;28;20464;-73
2022/01/26 00:29:17;;;;;;;99.35;35.05;;;;;;;4.91;100.00;102929.94;5067372;28;20519;-72
2022/01/26 00:40:40;;;;;;;109.13;35.78;;;;;;;4.90;100.00;102914.56;5065393;28;20560;-72
2022/01/26 00:43:13;;;;;;;102.70;35.85;;;;;;;4.86;100.00;102907.28;5061902;28;20053;-73
2022/01/26 00:45:40;;;;;;;101.00;33.40;;;;;;;4.88;100.00;102914.09;5065748;28;20485;-73
2022/01/26 00:48:09;;;;;;;103.65;38.25;;;;;;;4.83;100.00;102911.44;5067074;28;20061;-72
2022/01/26 00:50:37;;;;;;;107.25;36.42;;;;;;;4.79;100.00;102907.69;5065168;28;20573;-74
2022/01/26 00:53:05;;;;;;;111.45;35.63;;;;;;;4.79;100.00;102898.63;5060878;28;20055;-75
2022/01/26 00:55:31;;;;;;;93.85;33.75;;;;;;;4.83;100.00;102902.41;5059515;28;20055;-72
2022/01/26 00:57:58;;;;;;;118.20;39.40;;;;;;;4.83;100.00;102900.47;5065784;28;20500;-74
2022/01/26 01:00:27;;;;;;;121.05;39.95;;;;;;;4.78;100.00;102899.75;5080009;28;20057;-72
2022/01/26 01:02:56;;;;;;;109.20;40.15;;;;;;;4.76;100.00;102889.09;5066113;28;20505;-74
2022/01/26 01:05:32;;;;;;;110.25;38.92;;;;;;;4.76;100.00;102889.09;5065228;28;20424;-72
2022/01/26 01:08:05;;;;;;;98.00;34.08;;;;;;;4.75;100.00;102894.88;5066585;28;20057;-75
2022/01/26 01:10:32;;;;;;;99.75;35.13;;;;;;;4.79;100.00;102896.72;5065669;28;20052;-72
2022/01/26 01:13:00;;;;;;;104.88;36.58;;;;;;;4.74;100.00;102894.09;5064020;28;20048;-76
2022/01/26 01:15:28;;;;;;;104.03;36.70;;;;;;;4.76;100.00;102902.81;5059860;28;20106;-74
2022/01/26 01:18:15;;;;;;;117.93;40.60;;;;;;;4.77;100.00;102896.22;5065337;28;20516;-72
2022/01/26 01:29:07;;;;;;;105.72;38.67;;;;;;;4.68;100.00;102895.31;5064709;28;20054;-74
2022/01/26 01:34:08;;;;;;;118.82;37.80;;;;;;;4.62;100.00;102896.50;5057419;28;20055;-75
2022/01/26 01:36:37;;;;;;;102.03;36.97;;;;;;;4.58;100.00;102892.75;5061830;28;20051;-73
2022/01/26 01:39:07;;;;;;;111.28;38.05;;;;;;;4.63;100.00;102900.88;5065200;28;20044;-72
2022/01/26 01:41:35;;;;;;;105.13;37.22;;;;;;;4.58;100.00;102890.03;5068378;28;20051;-73
2022/01/26 01:44:04;;;;;;;112.97;40.70;;;;;;;4.61;100.00;102896.81;5065587;28;20143;-73
2022/01/26 01:46:32;;;;;;;109.35;40.58;;;;;;;4.63;100.00;102905.56;5066448;28;20084;-74
2022/01/26 01:48:59;;;;;;;111.75;36.78;;;;;;;4.61;100.00;102894.06;5065096;28;20136;-73
2022/01/26 01:51:32;;;;;;;127.40;41.40;;;;;;;4.60;100.00;102879.56;5065583;28;20088;-76
2022/01/26 01:53:58;;;;;;;112.60;40.15;;;;;;;4.61;100.00;102897.66;5063970;28;20131;-73
2022/01/26 01:56:26;;;;;;;121.68;40.45;;;;;;;4.58;100.00;102890.03;5066912;28;20055;-73
2022/01/26 01:58:54;;;;;;;111.68;39.47;;;;;;;4.62;100.00;102888.28;5054856;28;20056;-73
2022/01/26 02:01:21;;;;;;;122.07;43.30;;;;;;;4.61;100.00;102896.81;5066046;28;20458;-73
2022/01/26 02:03:48;;;;;;;123.80;42.13;;;;;;;4.62;100.00;102895.69;5067901;28;20048;-74
2022/01/26 02:06:14;;;;;;;115.22;40.47;;;;;;;4.63;100.00;102889.91;5067454;28;20425;-75
2022/01/26 02:08:42;;;;;;;104.82;36.60;;;;;;;4.57;100.00;102891.16;5068850;28;20052;-72
2022/01/26 02:11:11;;;;;;;129.02;41.13;;;;;;;4.54;100.00;102890.94;5068553;28;20071;-74
2022/01/26 02:14:24;;;;;;;92.80;32.80;;;;;;;4.38;100.00;102882.19;5077728;28;20056;-74
2022/01/26 02:16:36;;;;;;;120.80;43.88;;;;;;;4.38;100.00;102892.34;5057260;28;20087;-71
2022/01/26 02:49:38;;;;;;;129.20;43.28;;;;;;;4.27;100.00;102858.03;5068680;28;20052;-72
2022/01/26 02:57:41;;;;;;;130.65;43.08;;;;;;;4.30;100.00;102839.06;5068061;28;20052;-71
2022/01/26 03:03:14;;;;;;;126.97;42.72;;;;;;;4.31;100.00;102823.41;5067925;28;20054;-73
2022/01/26 03:05:34;;;;;;;133.55;45.20;;;;;;;4.35;100.00;102832.63;5068335;28;20055;-73
2022/01/26 03:08:05;;;;;;;137.50;41.75;;;;;;;4.30;99.76;102830.84;5069649;28;20136;-73
2022/01/26 03:10:45;;;;;;;135.20;43.00;;;;;;;4.29;99.94;102823.72;5054051;28;20041;-72
2022/01/26 03:13:20;;;;;;;48.58;18.05;;;;;;;4.18;100.00;102816.81;5068588;28;20050;-72
2022/01/26 03:15:53;;;;;;;108.63;35.72;;;;;;;4.14;100.00;102814.97;5067536;28;20102;-72
2022/01/26 03:20:59;;;;;;;118.43;39.65;;;;;;;4.16;100.00;102802.63;5065942;28;20053;-73
2022/01/26 03:28:14;;;;;;;138.02;45.15;;;;;;;4.21;100.00;102807.97;5068820;28;20151;-73
2022/01/26 03:34:16;;;;;;;126.63;41.88;;;;;;;4.18;100.00;102792.16;5064382;28;19967;-75
2022/01/26 03:36:59;;;;;;;111.28;38.95;;;;;;;4.13;100.00;102785.97;5061848;28;20075;-73
2022/01/26 03:39:28;;;;;;;135.10;43.05;;;;;;;4.13;100.00;102792.25;5060094;28;20041;-74
2022/01/26 03:42:03;;;;;;;140.88;45.78;;;;;;;4.13;100.00;102803.22;5067326;28;20432;-74
2022/01/26 03:44:30;;;;;;;140.32;44.28;;;;;;;4.13;100.00;102805.97;5072595;28;20044;-71
2022/01/26 03:46:57;;;;;;;140.07;48.58;;;;;;;4.14;100.00;102804.00;5068518;28;20049;-71
2022/01/26 03:49:24;;;;;;;143.63;45.08;;;;;;;4.18;100.00;102816.00;5067121;28;20497;-71
2022/01/26 03:51:51;;;;;;;44.78;16.70;;;;;;;4.06;100.00;102813.78;5066273;28;20071;-73
2022/01/26 03:54:18;;;;;;;141.13;44.60;;;;;;;4.15;100.00;102808.41;5067077;28;20048;-72
2022/01/26 03:56:44;;;;;;;138.43;40.78;;;;;;;4.14;100.00;102804.00;5064638;28;20058;-75
2022/01/26 03:59:11;;;;;;;64.82;22.33;;;;;;;4.03;100.00;102803.41;5055189;28;20076;-74
2022/01/26 04:01:39;;;;;;;129.50;44.75;;;;;;;4.11;100.00;102807.34;5066905;28;20052;-73
2022/01/26 04:04:06;;;;;;;128.00;40.83;;;;;;;4.06;100.00;102812.94;5066959;28;20174;-76
2022/01/26 04:06:34;;;;;;;132.48;43.58;;;;;;;4.09;100.00;102813.13;5072673;28;20052;-74
2022/01/26 04:09:03;;;;;;;109.07;37.90;;;;;;;4.00;100.00;102825.94;5066908;28;20647;-72
2022/01/26 04:11:42;;;;;;;143.27;47.42;;;;;;;4.01;100.00;102822.06;5067615;28;20839;-72
2022/01/26 04:14:14;;;;;;;133.40;43.92;;;;;;;4.07;100.00;102831.00;5069506;28;20139;-71
2022/01/26 04:16:42;;;;;;;129.13;41.10;;;;;;;4.02;100.00;102826.44;5056628;28;20059;-75
2022/01/26 04:19:10;;;;;;;138.00;43.85;;;;;;;4.05;100.00;102828.56;5065566;28;20135;-72
2022/01/26 04:21:57;;;;;;;147.77;45.83;;;;;;;4.06;100.00;102830.22;5067546;28;20072;-72
2022/01/26 04:24:38;;;;;;;138.40;45.63;;;;;;;4.06;100.00;102834.88;5061865;28;20056;-72
2022/01/26 04:27:16;;;;;;;132.32;43.58;;;;;;;4.00;100.00;102825.94;5063541;28;20497;-72
2022/01/26 04:29:43;;;;;;;71.45;22.80;;;;;;;3.94;100.00;102820.84;5059930;28;20055;-73
2022/01/26 04:32:13;;;;;;;119.78;41.00;;;;;;;3.98;100.00;102824.63;5064430;28;20064;-75
2022/01/26 04:34:39;;;;;;;115.53;38.95;;;;;;;3.91;100.00;102827.72;5073418;28;20040;-72
2022/01/26 04:39:52;;;;;;;103.13;33.75;;;;;;;3.92;100.00;102812.91;5067540;28;20151;-73
2022/01/26 04:42:47;;;;;;;116.70;42.47;;;;;;;3.88;100.00;102811.09;5068361;28;20079;-75
2022/01/26 04:45:10;;;;;;;126.13;42.20;;;;;;;3.92;100.00;102821.13;5066110;28;20048;-74
2022/01/26 04:47:37;;;;;;;32.13;16.60;;;;;;;3.84;100.00;102821.03;5066966;28;20041;-74
2022/01/26 04:50:06;;;;;;;63.63;23.05;;;;;;;3.79;100.00;102815.66;5068054;28;20058;-72
2022/01/26 04:52:33;;;;;;;54.80;18.67;;;;;;;3.76;100.00;102814.34;5062184;28;20072;-73
2022/01/26 04:54:59;;;;;;;122.90;40.42;;;;;;;3.88;100.00;102822.84;5061804;28;20470;-71
2022/01/26 04:57:26;;;;;;;127.55;39.50;;;;;;;3.85;100.00;102828.94;5066863;28;20135;-74
2022/01/26 04:59:52;;;;;;;136.88;44.42;;;;;;;3.84;100.00;102832.78;5063956;28;20067;-73
2022/01/26 05:02:19;;;;;;;86.47;28.88;;;;;;;3.74;100.00;102830.22;5065481;28;20552;-74
2022/01/26 05:04:46;;;;;;;129.35;42.25;;;;;;;3.88;100.00;102824.81;5060595;28;20428;-75
2022/01/26 05:07:12;;;;;;;128.80;42.40;;;;;;;3.85;100.00;102839.09;5067766;28;20499;-73
2022/01/26 05:09:40;;;;;;;117.07;39.50;;;;;;;3.87;100.00;102853.28;5067188;28;20451;-75
2022/01/26 05:12:07;;;;;;;134.38;44.78;;;;;;;3.91;100.00;102843.38;5058067;28;20072;-73
2022/01/26 05:14:34;;;;;;;126.78;44.55;;;;;;;3.87;100.00;102845.06;5060348;28;20044;-75
2022/01/26 05:17:00;;;;;;;121.20;41.20;;;;;;;3.88;100.00;102847.50;5074389;28;20084;-73
2022/01/26 05:19:27;;;;;;;109.60;33.30;;;;;;;3.87;100.00;102845.06;5060738;28;20045;-73
2022/01/26 05:21:54;;;;;;;123.70;41.45;;;;;;;3.82;100.00;102847.91;5073586;28;20143;-73
2022/01/26 05:24:20;;;;;;;44.38;20.00;;;;;;;3.82;100.00;102851.47;5068074;28;20052;-72
2022/01/26 05:26:47;;;;;;;67.68;24.67;;;;;;;3.87;100.00;102851.38;5066053;28;20052;-74
2022/01/26 05:29:13;;;;;;;134.57;42.17;;;;;;;3.87;100.00;102854.09;5064810;28;20049;-72
2022/01/26 05:31:40;;;;;;;123.05;42.70;;;;;;;3.84;100.00;102843.75;5067396;28;20191;-74
2022/01/26 05:34:07;;;;;;;134.60;43.15;;;;;;;3.86;100.00;102841.53;5067637;28;20140;-73
2022/01/26 05:36:34;;;;;;;126.43;41.03;;;;;;;3.85;100.00;102842.63;5067064;28;20560;-72
2022/01/26 05:39:02;;;;;;;140.15;45.65;;;;;;;3.87;100.00;102837.69;5068255;28;20040;-73
2022/01/26 05:41:29;;;;;;;17.35;10.68;;;;;;;3.83;100.00;102833.91;5066583;28;20049;-76
2022/01/26 05:43:56;;;;;;;124.05;41.17;;;;;;;3.88;100.00;102828.34;5059294;28;20049;-72
2022/01/26 05:46:37;;;;;;;124.28;41.40;;;;;;;3.89;100.00;102827.25;5065182;28;20057;-73
2022/01/26 05:49:04;;;;;;;67.63;20.20;;;;;;;3.80;100.00;102826.31;5067651;28;20056;-73
2022/01/26 05:51:33;;;;;;;59.40;23.77;;;;;;;3.72;100.00;102818.78;5059733;28;20052;-73
2022/01/26 05:54:05;;;;;;;136.52;43.65;;;;;;;3.80;100.00;102807.13;5066615;28;20607;-74
2022/01/26 05:56:31;;;;;;;127.50;40.10;;;;;;;3.85;100.00;102806.22;5066916;28;20079;-73
2022/01/26 05:58:58;;;;;;;120.43;41.17;;;;;;;3.73;100.00;102789.47;5061293;28;20135;-73
2022/01/26 06:01:25;;;;;;;117.82;38.10;;;;;;;3.77;100.00;102790.47;5062533;28;20136;-74
2022/01/26 06:03:52;;;;;;;19.58;11.35;;;;;;;3.67;100.00;102788.75;5064127;28;20068;-74
2022/01/26 06:06:18;;;;;;;119.75;39.90;;;;;;;3.72;100.00;102787.84;5063594;28;20052;-73
2022/01/26 06:08:45;;;;;;;80.28;29.65;;;;;;;3.66;100.00;102798.06;5064349;28;20213;-71
2022/01/26 06:11:12;;;;;;;139.52;44.42;;;;;;;3.75;100.00;102812.69;5066676;28;20055;-74
2022/01/26 06:13:38;;;;;;;137.32;43.53;;;;;;;3.76;100.00;102811.59;5059764;28;20126;-73
2022/01/26 06:16:05;;;;;;;105.03;34.53;;;;;;;3.78;100.00;102817.56;5074779;28;20048;-72
2022/01/26 06:18:32;;;;;;;117.10;38.95;;;;;;;3.72;100.00;102802.34;5064326;28;20056;-73
2022/01/26 06:20:59;;;;;;;124.43;38.72;;;;;;;3.75;100.00;102814.63;5060152;28;20053;-72
2022/01/26 06:23:26;;;;;;;34.33;15.93;;;;;;;3.63;100.00;102808.81;5065859;28;20673;-72
2022/01/26 06:25:55;;;;;;;130.68;42.90;;;;;;;3.74;100.00;102822.03;5065421;28;20106;-73
2022/01/26 06:28:24;;;;;;;109.55;33.25;;;;;;;3.72;100.00;102828.91;5065332;28;20045;-72
2022/01/26 06:30:55;;;;;;;119.22;38.65;;;;;;;3.74;100.00;102832.97;5063818;28;20631;-75
2022/01/26 06:33:22;;;;;;;133.02;42.92;;;;;;;3.74;100.00;102826.72;5056465;28;20056;-72
2022/01/26 06:35:49;;;;;;;58.40;21.55;;;;;;;3.66;100.00;102822.72;5068107;28;20044;-71
2022/01/26 06:38:15;;;;;;;46.53;17.50;;;;;;;3.58;100.00;102819.84;5064693;28;20135;-72
2022/01/26 06:40:42;;;;;;;134.45;43.28;;;;;;;3.68;100.00;102811.47;5065627;28;20048;-71
2022/01/26 06:43:12;;;;;;;122.20;38.88;;;;;;;3.67;100.00;102796.97;5063458;28;20048;-74
2022/01/26 06:45:53;;;;;;;35.15;14.57;;;;;;;3.58;100.00;102808.91;5062036;28;20133;-72
2022/01/26 06:51:05;;;;;;;121.55;36.53;;;;;;;3.65;100.00;102801.13;5070394;28;20055;-74
2022/01/26 06:53:31;;;;;;;128.43;41.80;;;;;;;3.65;100.00;102796.44;5068838;28;20119;-74
2022/01/26 06:55:58;;;;;;;122.53;40.17;;;;;;;3.67;100.00;102802.44;5068197;28;20055;-73
2022/01/26 06:58:24;;;;;;;135.30;39.22;;;;;;;3.69;100.00;102808.44;5066905;28;20069;-72
2022/01/26 07:00:51;;;;;;;116.40;38.13;;;;;;;3.70;100.00;102812.78;5062452;28;20582;-74
2022/01/26 07:03:18;;;;;;;41.20;19.38;;;;;;;3.54;100.00;102814.16;5067023;28;20570;-75
2022/01/26 07:05:46;;;;;;;109.05;32.67;;;;;;;3.66;100.00;102824.63;5065830;28;20098;-74
2022/01/26 07:08:14;;;;;;;124.00;39.88;;;;;;;3.66;100.00;102810.94;5068759;28;20123;-75
2022/01/26 07:10:41;;;;;;;107.30;36.47;;;;;;;3.66;100.00;102819.97;5068991;28;20135;-72
2022/01/26 07:13:08;;;;;;;127.20;39.22;;;;;;;3.66;100.00;102833.66;5068186;28;20044;-72
2022/01/26 07:23:31;;;;;;;115.03;36.63;;;;;;;3.56;100.00;102803.72;5067236;28;20139;-74
2022/01/26 07:25:58;;;;;;;68.20;25.90;;;;;;;3.43;100.00;102807.22;5067804;28;20135;-73
2022/01/26 07:28:26;;;;;;;72.88;25.77;;;;;;;3.41;100.00;102797.69;5069534;28;20151;-74
2022/01/26 07:30:53;;;;;;;66.70;27.67;;;;;;;3.42;100.00;102799.31;5068545;28;20052;-73
2022/01/26 07:33:19;;;;;;;109.30;36.03;;;;;;;3.50;100.00;102793.97;5063335;28;20052;-71
2022/01/26 07:35:46;;;;;;;56.17;18.40;;;;;;;3.50;100.00;102796.72;5069991;28;20130;-72
2022/01/26 07:38:13;;;;;;;132.68;37.58;;;;;;;3.52;100.00;102791.75;5069120;28;20533;-75
2022/01/26 07:40:41;;;;;;;79.43;27.65;;;;;;;3.43;100.00;102785.34;5068450;28;20151;-71
2022/01/26 07:43:08;;;;;;;126.47;42.53;;;;;;;3.55;100.00;102799.38;5069141;28;20048;-72
2022/01/26 07:45:35;;;;;;;134.45;43.53;;;;;;;3.57;100.00;102816.28;5068891;28;20062;-74
2022/01/26 07:48:04;;;;;;;45.08;18.40;;;;;;;3.52;100.00;102813.66;5070928;28;20056;-72
2022/01/26 07:50:31;;;;;;;128.77;41.38;;;;;;;3.60;100.00;102820.34;5074111;28;20842;-74
2022/01/26 07:52:59;;;;;;;44.22;18.60;;;;;;;3.63;100.00;102828.78;5068479;28;20464;-73
2022/01/26 07:55:26;;;;;;;134.50;43.03;;;;;;;3.64;100.00;102804.97;5069605;28;20052;-73
2022/01/26 07:57:54;;;;;;;83.25;32.05;;;;;;;3.57;100.00;102788.09;5067982;28;20048;-76
2022/01/26 08:00:22;;;;;;;49.10;19.35;;;;;;;3.56;100.00;102792.78;5067871;28;20062;-73
2022/01/26 08:02:49;;;;;;;141.70;42.50;;;;;;;3.66;100.00;102797.25;5067842;28;20056;-74
2022/01/26 08:05:17;;;;;;;109.43;36.85;;;;;;;3.66;100.00;102787.13;5068438;28;20048;-75
2022/01/26 08:07:43;;;;;;;133.07;43.92;;;;;;;3.67;100.00;102791.47;5069339;28;20059;-73
2022/01/26 08:10:11;;;;;;;107.15;33.53;;;;;;;3.66;100.00;102787.13;5078815;28;20070;-73
2022/01/26 08:12:38;;;;;;;34.10;14.45;;;;;;;3.62;100.00;102807.19;5069390;28;20506;-73
2022/01/26 08:15:20;;;;;;;61.90;25.13;;;;;;;3.63;100.00;102817.03;5073271;28;20135;-74
2022/01/26 08:17:47;;;;;;;128.55;41.17;;;;;;;3.68;100.00;102811.47;5066808;28;20159;-71
2022/01/26 08:20:14;;;;;;;58.13;24.08;;;;;;;3.64;100.00;102827.66;5068656;28;20048;-71
2022/01/26 08:22:40;;;;;;;71.70;28.88;;;;;;;3.67;100.00;102824.34;5064835;28;20056;-73
2022/01/26 08:25:08;;;;;;;57.15;24.80;;;;;;;3.69;100.00;102808.44;5065120;28;20457;-72
2022/01/26 08:27:40;;;;;;;108.80;39.35;;;;;;;3.60;100.00;102809.41;5081186;28;20049;-70
2022/01/26 08:30:11;;;;;;;116.65;39.55;;;;;;;3.62;100.00;102829.91;5060041;28;20059;-71
2022/01/26 08:32:39;;;;;;;47.40;19.90;;;;;;;3.68;100.00;102836.91;5063548;28;20056;-72
2022/01/26 08:35:06;;;;;;;130.27;42.70;;;;;;;3.71;100.00;102849.22;5080506;28;20052;-72
2022/01/26 08:37:33;;;;;;;138.75;43.33;;;;;;;3.78;100.00;102850.41;5068188;28;20556;-75
2022/01/26 08:40:00;;;;;;;59.40;22.23;;;;;;;3.72;100.00;102857.13;5066410;28;20153;-72
2022/01/26 08:42:27;;;;;;;89.15;31.30;;;;;;;3.70;100.00;102856.59;5065559;28;20080;-75
2022/01/26 08:44:53;;;;;;;96.30;31.80;;;;;;;3.77;100.00;102846.06;5066579;28;20084;-72
2022/01/26 08:47:20;;;;;;;41.83;19.55;;;;;;;3.75;100.00;102844.75;5063964;28;20691;-73
2022/01/26 08:49:47;;;;;;;82.18;33.40;;;;;;;3.72;100.00;102843.44;5066489;28;20461;-73
2022/01/26 08:52:14;;;;;;;88.80;27.50;;;;;;;3.68;100.00;102838.84;5067899;28;20052;-74
2022/01/26 08:54:40;;;;;;;137.90;43.67;;;;;;;3.80;100.00;102847.38;5063934;28;20060;-73
2022/01/26 08:57:07;;;;;;;51.05;17.42;;;;;;;3.69;100.00;102854.97;5058457;28;20416;-73
2022/01/26 08:59:33;;;;;;;106.40;36.83;;;;;;;3.63;100.00;102861.66;5081194;28;20082;-73
2022/01/26 09:02:00;;;;;;;74.82;25.05;;;;;;;3.73;100.00;102864.22;5068929;28;20072;-74
2022/01/26 09:04:27;;;;;;;106.80;37.05;;;;;;;3.65;100.00;102867.63;5067185;28;20048;-72
2022/01/26 09:06:59;;;;;;;64.63;22.33;;;;;;;3.70;100.00;102873.03;5061814;28;20059;-73
2022/01/26 09:09:32;;;;;;;30.70;13.88;;;;;;;3.67;100.00;102868.16;5060101;28;20052;-74
2022/01/26 09:12:05;;;;;;;120.25;37.78;;;;;;;3.77;100.00;102861.69;5064991;28;20198;-72
2022/01/26 09:14:32;;;;;;;89.70;30.10;;;;;;;3.67;100.00;102862.66;5069312;28;20107;-73
2022/01/26 09:16:59;;;;;;;131.23;41.60;;;;;;;3.76;100.00;102866.34;5070833;28;20054;-73
2022/01/26 09:19:30;;;;;;;105.30;34.63;;;;;;;3.62;100.00;102856.47;5059358;28;20056;-74
2022/01/26 09:21:59;;;;;;;80.72;25.98;;;;;;;3.66;100.00;102865.72;5058972;28;20048;-74
2022/01/26 09:24:27;;;;;;;132.05;39.00;;;;;;;3.69;100.00;102859.63;5063403;28;20105;-72
2022/01/26 09:26:54;;;;;;;66.28;26.27;;;;;;;3.66;100.00;102858.31;5065180;28;20075;-75
2022/01/26 09:29:21;;;;;;;104.13;33.53;;;;;;;3.59;100.00;102857.88;5056542;28;20513;-74
2022/01/26 09:31:47;;;;;;;70.32;25.08;;;;;;;3.62;100.00;102853.72;5046824;28;20665;-72
2022/01/26 09:34:16;;;;;;;118.38;38.60;;;;;;;3.76;100.00;102847.19;5047114;28;20215;-76
2022/01/26 09:36:43;;;;;;;128.18;43.35;;;;;;;3.62;100.00;102856.47;5050547;28;20060;-74
2022/01/26 09:39:11;;;;;;;52.38;18.20;;;;;;;3.70;100.00;102853.84;5050682;28;20048;-77
2022/01/26 09:41:39;;;;;;;80.55;29.67;;;;;;;3.63;100.00;102847.13;5049173;28;20402;-73
2022/01/26 09:44:06;;;;;;;125.05;40.67;;;;;;;3.63;100.00;102849.88;5063401;28;20057;-76
2022/01/26 09:46:33;;;;;;;116.80;38.38;;;;;;;3.60;100.00;102837.59;5045874;28;20060;-72
2022/01/26 09:49:01;;;;;;;78.57;25.48;;;;;;;3.72;100.00;102835.22;5049722;28;20429;-74
2022/01/26 09:51:28;;;;;;;124.97;37.55;;;;;;;3.79;100.00;102838.38;5049718;28;20070;-75
2022/01/26 09:53:59;;;;;;;96.53;30.75;;;;;;;3.71;100.00;102838.25;5054243;28;20055;-71
2022/01/26 09:56:26;;;;;;;75.90;25.95;;;;;;;3.73;100.00;102828.63;5048884;28;20144;-73
2022/01/26 09:58:53;;;;;;;58.75;22.10;;;;;;;3.71;100.00;102828.09;5050686;28;20133;-77
2022/01/26 10:01:20;;;;;;;98.82;30.65;;;;;;;3.69;100.00;102821.31;5048293;28;20992;-76
2022/01/26 10:03:49;;;;;;;82.88;27.02;;;;;;;3.64;100.00;102824.13;5053836;28;20136;-74
2022/01/26 10:06:24;;;;;;;70.95;23.92;;;;;;;3.71;100.00;102830.84;5049007;28;20051;-75
2022/01/26 10:15:28;;;;;;;103.78;32.00;;;;;;;3.69;100.00;102840.47;5062584;28;20119;-73
2022/01/26 10:17:24;;;;;;;95.90;32.10;;;;;;;3.72;100.00;102832.47;5065638;28;20048;-74
2022/01/26 10:19:55;;;;;;;35.33;10.52;;;;;;;3.74;100.00;102829.44;5062888;28;20391;-75
2022/01/26 10:22:30;;;;;;;40.15;16.60;;;;;;;3.73;100.00;102825.88;5068017;28;20044;-72
2022/01/26 10:25:09;;;;;;;89.10;33.05;;;;;;;3.79;100.00;102834.81;5068188;28;20056;-73
2022/01/26 10:27:55;;;;;;;148.48;41.83;;;;;;;3.86;100.00;102835.25;5066029;28;20051;-75
2022/01/26 10:30:21;;;;;;;111.10;36.10;;;;;;;3.85;100.00;102848.09;5063607;28;20056;-73
2022/01/26 10:32:48;;;;;;;145.35;45.88;;;;;;;3.90;100.00;102864.47;5066638;28;20459;-70
2022/01/26 10:35:15;;;;;;;21.98;10.25;;;;;;;3.84;100.00;102871.13;5064431;28;20147;-72
2022/01/26 10:37:53;;;;;;;93.35;32.55;;;;;;;3.84;100.00;102865.66;5064204;28;20586;-76
2022/01/26 10:40:24;;;;;;;68.90;23.10;;;;;;;3.90;100.00;102860.91;5064398;28;20076;-72
2022/01/26 10:43:10;;;;;;;83.90;30.90;;;;;;;3.86;100.00;102854.41;5068128;28;20509;-73
2022/01/26 10:51:39;;;;;;;86.35;28.80;;;;;;;3.89;100.00;102851.06;5068488;28;20052;-72
2022/01/26 10:54:17;;;;;;;122.25;44.22;;;;;;;3.83;100.00;102858.56;5065145;28;20125;-72
2022/01/26 10:56:50;;;;;;;121.65;41.67;;;;;;;3.92;100.00;102850.47;5063088;28;20048;-73
2022/01/26 10:59:18;;;;;;;67.13;20.92;;;;;;;3.91;100.00;102851.59;5066619;28;20098;-73
2022/01/26 11:01:44;;;;;;;79.38;23.33;;;;;;;3.92;100.00;102847.72;5067450;28;20102;-76
2022/01/26 11:04:11;;;;;;;133.43;44.53;;;;;;;3.84;100.00;102871.13;5083321;28;20057;-74
2022/01/26 11:06:42;;;;;;;61.20;19.02;;;;;;;3.95;100.00;102883.53;5069928;28;20052;-73
2022/01/26 11:09:13;;;;;;;56.55;20.90;;;;;;;3.94;100.00;102881.09;5067059;28;20053;-75
2022/01/26 11:11:40;;;;;;;60.40;23.15;;;;;;;3.93;100.00;102884.97;5066085;28;20048;-71
2022/01/26 11:14:14;;;;;;;96.82;32.03;;;;;;;4.00;100.00;102871.69;5072115;28;20139;-74
2022/01/26 11:17:00;;;;;;;108.35;39.63;;;;;;;3.90;100.00;102874.59;5068292;28;20469;-72
2022/01/26 11:19:27;;;;;;;105.25;31.05;;;;;;;3.99;100.00;102862.66;5068444;28;20056;-73
2022/01/26 11:22:06;;;;;;;123.60;44.72;;;;;;;3.84;100.00;102865.66;5068176;28;20056;-72
2022/01/26 11:24:50;;;;;;;111.43;34.83;;;;;;;3.93;100.00;102863.88;5067559;28;20091;-72
2022/01/26 11:27:18;;;;;;;181.55;54.97;;;;;;;4.00;100.00;102864.28;5064948;28;20139;-72
2022/01/26 11:29:48;;;;;;;102.82;37.28;;;;;;;4.00;100.00;102849.75;5069034;28;20226;-73
2022/01/26 11:32:32;;;;;;;82.53;32.10;;;;;;;3.88;100.00;102847.50;5068243;28;20058;-73
2022/01/26 11:35:04;;;;;;;53.20;21.70;;;;;;;3.98;100.00;102841.06;5068630;28;20060;-75
2022/01/26 11:37:40;;;;;;;102.97;37.50;;;;;;;3.93;100.00;102846.59;5063373;28;20048;-72
2022/01/26 11:45:34;;;;;;;110.88;35.47;;;;;;;4.08;100.00;102840.88;5066815;28;20056;-73
2022/01/26 11:48:05;;;;;;;105.80;37.60;;;;;;;4.01;100.00;102840.44;5066179;28;20052;-74
2022/01/26 11:50:32;;;;;;;88.18;24.70;;;;;;;4.09;100.00;102846.00;5065758;28;20132;-73
2022/01/26 11:53:07;;;;;;;61.67;19.30;;;;;;;4.13;100.00;102838.84;5067421;28;20053;-71
2022/01/26 11:55:48;;;;;;;164.25;47.47;;;;;;;4.20;100.00;102838.44;5066631;28;20393;-71
2022/01/26 11:58:34;;;;;;;62.95;20.85;;;;;;;4.09;100.00;102840.53;5067218;28;20145;-71
2022/01/26 12:01:23;;;;;;;61.65;21.35;;;;;;;4.16;100.00;102840.16;5066970;28;20056;-72
2022/01/26 12:04:04;;;;;;;86.57;26.40;;;;;;;4.15;100.00;102847.56;5070298;28;20079;-73
2022/01/26 12:06:40;;;;;;;43.35;19.08;;;;;;;4.15;100.00;102838.53;5066759;28;20098;-72
2022/01/26 12:09:09;;;;;;;128.23;40.53;;;;;;;4.07;100.00;102840.03;5061498;28;20124;-72
2022/01/26 12:11:36;;;;;;;80.20;27.73;;;;;;;4.19;100.00;102828.59;5062670;28;20048;-73
2022/01/26 12:14:12;;;;;;;87.00;32.03;;;;;;;4.12;100.00;102828.97;5066104;28;20062;-74
2022/01/26 12:16:44;;;;;;;104.22;33.60;;;;;;;4.22;100.00;102823.31;5069834;28;20078;-70
2022/01/26 12:38:05;;;;;;;56.05;18.25;;;;;;;4.23;100.00;102793.97;5068256;28;20048;-73
2022/01/26 12:43:38;;;;;;;113.70;36.42;;;;;;;4.27;100.00;102795.81;5063406;28;20053;-73
2022/01/26 12:46:10;;;;;;;48.15;17.13;;;;;;;4.31;100.00;102799.56;5063096;28;20053;-72
2022/01/26 12:48:40;;;;;;;70.38;25.33;;;;;;;4.25;100.00;102800.78;5064752;28;20049;-73
2022/01/26 12:51:08;;;;;;;85.82;27.90;;;;;;;4.19;100.00;102798.44;5065433;28;20064;-74
2022/01/26 12:53:36;;;;;;;105.72;35.58;;;;;;;4.20;100.00;102802.81;5064403;28;21368;-74
2022/01/26 12:56:05;;;;;;;99.20;30.23;;;;;;;4.22;100.00;102795.09;5061642;28;20085;-73
2022/01/26 12:58:37;;;;;;;59.70;24.50;;;;;;;4.23;100.00;102796.72;5065943;28;20051;-72
2022/01/26 13:01:06;;;;;;;70.97;24.25;;;;;;;4.19;100.00;102784.75;5065359;28;20080;-76
2022/01/26 13:03:37;;;;;;;98.57;31.10;;;;;;;4.30;100.00;102786.97;5068408;28;20105;-72
2022/01/26 13:06:11;;;;;;;85.72;28.45;;;;;;;4.27;100.00;102790.34;5064607;28;20513;-72
2022/01/26 13:08:47;;;;;;;82.28;27.80;;;;;;;4.24;100.00;102784.63;5057664;28;20052;-75
2022/01/26 13:11:22;;;;;;;58.63;19.65;;;;;;;4.23;100.00;102772.88;5055870;28;20416;-74
2022/01/26 13:13:48;;;;;;;;;;;;;;;4.31;100.00;102766.66;5059180;28;20055;-73
2022/01/26 13:16:19;;;;;;;94.63;31.88;;;;;;;4.32;100.00;102764.75;5059021;28;19924;-72
2022/01/26 13:22:28;;;;;;;89.05;29.45;;;;;;;4.17;100.00;102754.91;5015726;28;20196;-72
2022/01/26 13:27:54;;;;;;;92.82;32.72;;;;;;;4.13;100.00;102742.94;5013322;28;20083;-73
2022/01/26 13:41:29;;;;;;;82.32;30.10;;;;;;;4.13;100.00;102734.72;4994182;28;20046;-75
2022/01/26 13:59:25;;;;;;;59.15;20.40;;;;;;;4.32;100.00;102751.84;5069496;28;20818;-73
2022/01/26 14:01:52;;;;;;;87.35;31.08;;;;;;;4.20;100.00;102743.34;5083573;28;20055;-74